Latest Weather Observations for Sydney Harbour

IDN60901

Issued at 4:41 pm EST Sunday 18 August 2019 (issued every 10 minutes, with the page automatically refreshed every 10 minutes)

About weather observations | Map of Sydney area stations | Latest observations for Sydney area | Other Formats
Station Details ID: 066196 Name: WEDDING CAKE WEST Lat: -33.84 Lon: 151.26 Height: 6.0 m
Data from the previous 72 hours. | See also: Recent months at Sydney Harbour
Date/Time
EST
Temp
°C
App
Temp
°C
Dew
Point
°C
Rel
Hum
%
Delta-T
°C
Wind Press
QNH
hPa
Press
MSL
hPa
Rain since
9am
mm
Dir  Spd
km/h
Gust
km/h
Spd
kts
Gust
kts
18/04:30pm 18.0 - - - - NNE 43 54 23 29 - - -
18/04:00pm 18.1 - - - - NNE 39 46 21 25 - - -
18/03:30pm 18.0 - - - - NNE 35 44 19 24 - - -
18/03:00pm 17.9 - - - - NNE 41 48 22 26 - - -
18/02:30pm 17.7 - - - - NNE 35 46 19 25 - - -
18/02:00pm 17.3 - - - - NNE 39 46 21 25 - - -
18/01:30pm 17.1 - - - - NNE 39 50 21 27 - - -
18/01:00pm 17.1 - - - - NNE 35 43 19 23 - - -
18/12:30pm 16.8 - - - - NNE 30 35 16 19 - - -
18/12:00pm 16.6 - - - - NNE 32 37 17 20 - - -
18/11:30am 15.8 - - - - NNE 28 33 15 18 - - -
18/11:00am 15.8 - - - - NNE 24 28 13 15 - - -
18/10:30am 15.7 - - - - NNE 22 26 12 14 - - -
18/10:00am 15.8 - - - - NE 19 26 10 14 - - -
18/09:30am 14.3 - - - - S 7 9 4 5 - - -
18/09:00am 13.3 - - - - S 9 13 5 7 - - -
18/08:30am 13.0 - - - - S 6 7 3 4 - - -
18/08:00am 11.9 - - - - SSW 7 9 4 5 - - -
18/07:30am 11.4 - - - - SSW 7 9 4 5 - - -
18/07:00am 10.9 - - - - WSW 11 15 6 8 - - -
18/06:30am 11.3 - - - - SW 11 15 6 8 - - -
18/06:00am 11.1 - - - - SW 11 15 6 8 - - -
18/05:30am 11.3 - - - - SW 13 15 7 8 - - -
18/05:00am 11.4 - - - - SW 11 15 6 8 - - -
18/04:30am 11.9 - - - - SW 9 13 5 7 - - -
18/04:00am 11.6 - - - - SW 13 15 7 8 - - -
18/03:30am 11.8 - - - - SW 9 11 5 6 - - -
18/03:00am 11.9 - - - - SW 11 13 6 7 - - -
18/02:30am 12.1 - - - - SSW 9 11 5 6 - - -
18/02:00am 12.5 - - - - WSW 9 13 5 7 - - -
18/01:30am 12.6 - - - - WSW 7 11 4 6 - - -
18/01:00am 12.9 - - - - WSW 7 11 4 6 - - -
18/12:30am 12.9 - - - - WSW 11 13 6 7 - - -
18/12:00am 13.1 - - - - WSW 9 11 5 6 - - -
 
Date/Time
EST
Temp
°C
App
Temp
°C
Dew
Point
°C
Rel
Hum
%
Delta-T
°C
Wind Press
QNH
hPa
Press
MSL
hPa
Rain since
9am
mm
Dir  Spd
km/h
Gust
km/h
Spd
kts
Gust
kts
17/11:30pm 13.4 - - - - WSW 9 11 5 6 - - -
17/11:00pm 13.9 - - - - W 17 20 9 11 - - -
17/10:30pm 14.6 - - - - W 11 13 6 7 - - -
17/10:00pm 15.1 - - - - WNW 4 9 2 5 - - -
17/09:30pm 16.0 - - - - SSE 6 9 3 5 - - -
17/09:00pm 16.0 - - - - SE 13 17 7 9 - - -
17/08:30pm 16.0 - - - - SSE 13 15 7 8 - - -
17/08:00pm 15.9 - - - - SSE 11 15 6 8 - - -
17/07:30pm 15.7 - - - - S 9 15 5 8 - - -
17/07:00pm 15.6 - - - - SSW 7 9 4 5 - - -
17/06:30pm 15.9 - - - - S 11 13 6 7 - - -
17/06:00pm 16.1 - - - - S 11 15 6 8 - - -
17/05:30pm 16.2 - - - - SSE 13 17 7 9 - - -
17/05:00pm 16.6 - - - - SSE 17 20 9 11 - - -
17/04:30pm 16.9 - - - - SSE 20 28 11 15 - - -
17/04:00pm 16.9 - - - - SSE 24 32 13 17 - - -
17/03:30pm 16.7 - - - - SSE 24 32 13 17 - - -
17/03:00pm 16.2 - - - - S 30 39 16 21 - - -
17/02:30pm 16.8 - - - - S 28 35 15 19 - - -
17/02:00pm 16.7 - - - - S 32 39 17 21 - - -
17/01:30pm 16.2 - - - - S 32 39 17 21 - - -
17/01:00pm 16.4 - - - - SSE 28 37 15 20 - - -
17/12:30pm 16.1 - - - - S 26 37 14 20 - - -
17/12:00pm 16.1 - - - - S 30 35 16 19 - - -
17/11:30am 15.9 - - - - S 30 39 16 21 - - -
17/11:00am 16.1 - - - - S 28 41 15 22 - - -
17/10:30am 16.1 - - - - SSW 33 43 18 23 - - -
17/10:00am 16.2 - - - - SSW 24 35 13 19 - - -
17/09:30am 15.6 - - - - SW 22 26 12 14 - - -
17/09:00am 15.3 - - - - WSW 20 24 11 13 - - -
17/08:30am 15.1 - - - - WSW 20 26 11 14 - - -
17/08:00am 14.8 - - - - WSW 20 26 11 14 - - -
17/07:30am 14.8 - - - - SW 26 30 14 16 - - -
17/07:00am 15.0 - - - - SW 24 28 13 15 - - -
17/06:30am 15.1 - - - - WSW 22 30 12 16 - - -
17/06:00am 15.5 - - - - WSW 19 28 10 15 - - -
17/05:30am 15.1 - - - - WSW 20 28 11 15 - - -
17/05:00am 15.2 - - - - W 20 28 11 15 - - -
17/04:30am 16.0 - - - - W 17 22 9 12 - - -
17/04:00am 16.7 - - - - W 13 15 7 8 - - -
17/03:30am 16.3 - - - - W 15 17 8 9 - - -
17/03:00am 16.8 - - - - W 20 22 11 12 - - -
17/02:30am 15.8 - - - - WSW 26 35 14 19 - - -
17/02:00am 16.4 - - - - W 20 26 11 14 - - -
17/01:30am 16.7 - - - - WSW 15 19 8 10 - - -
17/01:00am 19.3 - - - - WNW 20 28 11 15 - - -
17/12:30am 19.0 - - - - NW 19 28 10 15 - - -
17/12:00am 18.4 - - - - NNW 20 24 11 13 - - -
 
Date/Time
EST
Temp
°C
App
Temp
°C
Dew
Point
°C
Rel
Hum
%
Delta-T
°C
Wind Press
QNH
hPa
Press
MSL
hPa
Rain since
9am
mm
Dir  Spd
km/h
Gust
km/h
Spd
kts
Gust
kts
16/11:30pm 18.6 - - - - NNW 17 22 9 12 - - -
16/11:00pm 17.7 - - - - NNW 11 13 6 7 - - -
16/10:30pm 18.7 - - - - NNW 11 13 6 7 - - -
16/10:00pm 18.6 - - - - NNW 11 15 6 8 - - -
16/09:30pm 19.9 - - - - NNW 13 15 7 8 - - -
16/09:00pm 19.6 - - - - NNW 15 17 8 9 - - -
16/08:30pm 19.1 - - - - NW 11 11 6 6 - - -
16/08:00pm 19.7 - - - - NW 11 13 6 7 - - -
16/07:30pm 19.9 - - - - W 13 20 7 11 - - -
16/07:00pm 20.8 - - - - WNW 9 13 5 7 - - -
16/06:30pm 18.4 - - - - WNW 6 7 3 4 - - -
16/06:00pm 17.8 - - - - NE 6 7 3 4 - - -
16/05:30pm 18.5 - - - - NNE 6 7 3 4 - - -
16/05:00pm 18.7 - - - - NNE 13 19 7 10 - - -
16/04:30pm 19.2 - - - - NE 20 24 11 13 - - -
16/04:00pm 19.7 - - - - ENE 17 20 9 11 - - -
16/03:30pm 19.0 - - - - NE 20 24 11 13 - - -
16/03:00pm 19.6 - - - - NE 17 20 9 11 - - -
16/02:30pm 19.3 - - - - NE 15 19 8 10 - - -
16/02:00pm 19.5 - - - - NE 17 20 9 11 - - -
16/01:30pm 19.7 - - - - NE 11 15 6 8 - - -
16/01:00pm 19.8 - - - - ENE 11 15 6 8 - - -
16/12:30pm 18.7 - - - - ENE 13 15 7 8 - - -
16/12:00pm 17.2 - - - - ESE 2 11 1 6 - - -
16/11:30am 16.1 - - - - S 9 11 5 6 - - -
16/11:00am 15.9 - - - - SW 13 19 7 10 - - -
16/10:30am 15.9 - - - - WSW 4 9 2 5 - - -
16/10:00am 13.8 - - - - SSW 11 15 6 8 - - -
16/09:30am 12.8 - - - - SSW 9 11 5 6 - - -
16/09:00am 12.4 - - - - S 6 13 3 7 - - -
16/08:30am 11.3 - - - - SW 9 11 5 6 - - -
16/08:00am 12.4 - - - - SSW 7 13 4 7 - - -
16/07:30am 10.8 - - - - SW 7 11 4 6 - - -
16/07:00am 10.6 - - - - SSW 7 11 4 6 - - -
16/06:30am 10.3 - - - - NNE 4 9 2 5 - - -
16/06:00am 9.8 - - - - N 6 9 3 5 - - -
16/05:30am 10.6 - - - - S 7 11 4 6 - - -
16/05:00am 10.1 - - - - N 7 11 4 6 - - -
16/04:30am 10.9 - - - - SW 6 11 3 6 - - -
16/04:00am 10.7 - - - - SW 7 11 4 6 - - -
16/03:30am 11.2 - - - - SW 11 13 6 7 - - -
16/03:00am 11.3 - - - - SSW 9 15 5 8 - - -
16/02:30am 11.6 - - - - SSW 11 13 6 7 - - -
16/02:00am 12.1 - - - - SSW 9 13 5 7 - - -
16/01:30am 13.0 - - - - NNE 4 9 2 5 - - -
16/01:00am 13.0 - - - - N 6 11 3 6 - - -
16/12:30am 13.2 - - - - W 6 9 3 5 - - -
16/12:00am 13.3 - - - - CALM 0 6 0 3 - - -
 
Date/Time
EST
Temp
°C
App
Temp
°C
Dew
Point
°C
Rel
Hum
%
Delta-T
°C
Wind Press
QNH
hPa
Press
MSL
hPa
Rain since
9am
mm
Dir  Spd
km/h
Gust
km/h
Spd
kts
Gust
kts
15/11:30pm 13.4 - - - - NNW 6 9 3 5 - - -
15/11:00pm 13.7 - - - - W 6 6 3 3 - - -
15/10:30pm 14.5 - - - - S 9 13 5 7 - - -
15/10:00pm 13.4 - - - - CALM 0 0 0 0 - - -
15/09:30pm 13.9 - - - - WSW 6 7 3 4 - - -
15/09:00pm 14.0 - - - - WNW 4 7 2 4 - - -
15/08:30pm 14.3 - - - - NNW 6 9 3 5 - - -
15/08:00pm 14.9 - - - - N 4 9 2 5 - - -
15/07:30pm 15.2 - - - - N 7 11 4 6 - - -
15/07:00pm 15.9 - - - - WNW 13 17 7 9 - - -
15/06:30pm 16.0 - - - - NNW 17 22 9 12 - - -
15/06:00pm 16.0 - - - - NNW 15 19 8 10 - - -
15/05:30pm 16.4 - - - - NNW 19 24 10 13 - - -
15/05:00pm 16.8 - - - - N 17 20 9 11 - - -

Latest Capital City Observations: Canberra | Sydney | Melbourne | Brisbane | Adelaide | Perth | Hobart | Darwin

Other formats

Comma delimited format used in spreadsheet applications
http://www.bom.gov.au/fwo/IDN60901/IDN60901.95766.axf

JavaScript Object Notation format (JSON) in row-major order
http://www.bom.gov.au/fwo/IDN60901/IDN60901.95766.json

Data quality

Most of these data are generated automatically and are frequently updated. Quality checks on data are not normally performed. It is possible for incorrect values to appear. Refer to information at About Latest Weather Observations and please check the disclaimer before using these data.